createdAt,value
2023-06-19T00:02:49.579Z,18.20
2023-06-19T00:07:56.712Z,18.10
2023-06-19T00:13:04.084Z,18.10
2023-06-19T00:18:12.286Z,17.80
2023-06-19T00:23:19.573Z,17.90
2023-06-19T00:28:26.555Z,17.90
2023-06-19T00:33:33.531Z,17.70
2023-06-19T00:38:44.108Z,17.70
2023-06-19T00:43:51.504Z,17.70
2023-06-19T00:48:59.178Z,17.70
2023-06-19T00:54:07.361Z,17.90
2023-06-19T00:59:23.973Z,17.70
2023-06-19T01:04:31.105Z,17.50
2023-06-19T01:09:48.999Z,17.50
2023-06-19T01:15:06.661Z,17.50
2023-06-19T01:20:13.997Z,17.40
2023-06-19T01:25:20.824Z,17.30
2023-06-19T01:30:27.810Z,17.40
2023-06-19T01:35:38.830Z,17.40
2023-06-19T01:40:47.256Z,17.50
2023-06-19T01:45:54.894Z,17.30
2023-06-19T01:51:01.958Z,17.20
2023-06-19T01:56:09.415Z,17.00
2023-06-19T02:01:17.206Z,16.80
2023-06-19T02:06:24.392Z,17.00
2023-06-19T02:11:31.240Z,17.20
2023-06-19T02:16:38.726Z,17.20
2023-06-19T02:21:46.206Z,17.30
2023-06-19T02:26:54.531Z,17.10
2023-06-19T02:32:02.321Z,17.00
2023-06-19T02:37:09.893Z,16.80
2023-06-19T02:42:17.005Z,16.70
2023-06-19T02:47:23.907Z,16.50
2023-06-19T02:52:32.119Z,16.50
2023-06-19T02:57:39.321Z,16.60
2023-06-19T03:02:46.794Z,16.50
2023-06-19T03:07:54.269Z,16.50
2023-06-19T03:13:01.627Z,16.50
2023-06-19T03:18:10.769Z,16.60
2023-06-19T03:23:17.880Z,16.70
2023-06-19T03:28:24.977Z,16.80
2023-06-19T03:33:32.150Z,16.80
2023-06-19T03:38:38.989Z,16.90
2023-06-19T03:43:45.943Z,16.70
2023-06-19T03:48:53.073Z,16.60
2023-06-19T03:53:59.861Z,16.60
2023-06-19T03:59:06.664Z,16.60
2023-06-19T04:04:13.537Z,16.60
2023-06-19T04:09:20.358Z,16.70
2023-06-19T04:14:27.155Z,16.80
2023-06-19T04:19:33.939Z,16.80
2023-06-19T04:24:41.301Z,17.00
2023-06-19T04:29:49.188Z,16.80
2023-06-19T04:34:56.016Z,16.80
2023-06-19T04:40:03.127Z,16.90
2023-06-19T04:45:11.641Z,17.00
2023-06-19T04:50:18.487Z,17.20
2023-06-19T04:55:26.965Z,17.30
2023-06-19T05:00:34.211Z,17.30
2023-06-19T05:05:41.131Z,17.20
2023-06-19T05:10:48.306Z,17.30
2023-06-19T05:15:56.795Z,17.40
2023-06-19T05:21:03.725Z,17.50
2023-06-19T05:26:11.062Z,17.60
2023-06-19T05:31:19.810Z,17.60
2023-06-19T05:36:27.083Z,17.50
2023-06-19T05:41:34.890Z,17.70
2023-06-19T05:46:41.881Z,17.90
2023-06-19T05:51:49.579Z,18.00
2023-06-19T05:56:56.947Z,18.10
2023-06-19T06:02:04.572Z,18.30
2023-06-19T06:07:11.477Z,18.40
2023-06-19T06:12:18.581Z,18.50
2023-06-19T06:17:25.829Z,18.50
2023-06-19T06:22:33.103Z,18.70
2023-06-19T06:27:40.114Z,18.90
2023-06-19T06:32:47.089Z,18.90
2023-06-19T06:37:54.018Z,19.20
2023-06-19T06:43:01.461Z,19.30
2023-06-19T06:48:11.771Z,19.70
2023-06-19T06:53:18.722Z,20.10
2023-06-19T06:58:25.582Z,20.30
2023-06-19T07:03:34.049Z,20.30
2023-06-19T07:08:42.432Z,20.80
2023-06-19T07:13:50.279Z,21.10
2023-06-19T07:18:57.237Z,21.40
2023-06-19T07:24:05.113Z,21.90
2023-06-19T07:29:12.119Z,22.30
2023-06-19T07:34:19.408Z,22.70
2023-06-19T07:39:26.366Z,23.10
2023-06-19T07:44:33.435Z,23.30
2023-06-19T07:49:40.774Z,23.50
2023-06-19T07:54:59.224Z,24.20
2023-06-19T08:00:09.302Z,24.30
2023-06-19T08:05:16.352Z,24.60
2023-06-19T08:10:23.242Z,25.10
2023-06-19T08:15:30.262Z,25.40
2023-06-19T08:20:37.470Z,25.30
2023-06-19T08:25:44.582Z,25.80
2023-06-19T08:30:51.805Z,25.80
2023-06-19T08:35:59.245Z,26.30
2023-06-19T08:41:06.857Z,26.40
2023-06-19T08:46:22.587Z,26.40
2023-06-19T08:51:34.343Z,26.60
2023-06-19T08:56:41.194Z,26.60
2023-06-19T09:01:54.208Z,27.10
2023-06-19T09:07:06.659Z,27.30
2023-06-19T09:12:16.865Z,27.50
2023-06-19T09:17:25.121Z,27.30
2023-06-19T09:22:33.265Z,27.30
2023-06-19T09:27:40.248Z,26.20
2023-06-19T09:32:47.509Z,26.10
2023-06-19T09:37:55.687Z,26.90
2023-06-19T09:43:05.415Z,27.80
2023-06-19T09:48:15.248Z,27.00
2023-06-19T09:53:22.918Z,26.10
2023-06-19T09:58:31.143Z,26.20
2023-06-19T10:03:41.203Z,26.00
2023-06-19T10:08:50.176Z,25.70
2023-06-19T10:13:57.050Z,25.80
2023-06-19T10:19:06.906Z,26.60
2023-06-19T10:24:19.185Z,26.30
2023-06-19T10:29:27.148Z,26.40
2023-06-19T10:34:38.646Z,26.00
2023-06-19T10:39:47.082Z,27.00
2023-06-19T10:44:54.099Z,26.90
2023-06-19T10:50:01.000Z,26.80
2023-06-19T10:55:08.818Z,26.60
2023-06-19T11:00:31.046Z,26.60
2023-06-19T11:05:37.943Z,26.80
2023-06-19T11:10:45.808Z,26.80
2023-06-19T11:15:54.079Z,27.00
2023-06-19T11:21:03.087Z,27.10
2023-06-19T11:26:10.645Z,27.50
2023-06-19T11:31:19.996Z,27.40
2023-06-19T11:36:27.314Z,27.20
2023-06-19T11:41:34.458Z,27.20
2023-06-19T11:46:41.935Z,27.10
2023-06-19T11:51:49.710Z,27.90
2023-06-19T11:56:57.165Z,28.30
2023-06-19T12:02:04.426Z,28.50
2023-06-19T12:07:13.079Z,28.70
2023-06-19T12:12:19.926Z,28.80
2023-06-19T12:17:27.637Z,28.40
2023-06-19T12:22:36.928Z,29.00
2023-06-19T12:27:44.102Z,28.90
2023-06-19T12:32:51.560Z,28.90
2023-06-19T12:37:58.874Z,29.00
2023-06-19T12:43:06.069Z,29.10
2023-06-19T12:48:14.456Z,29.00
2023-06-19T12:53:22.983Z,28.70
2023-06-19T12:58:30.046Z,27.80
2023-06-19T13:03:37.195Z,27.60
2023-06-19T13:08:46.152Z,28.70
2023-06-19T13:13:53.170Z,29.00
2023-06-19T13:19:00.462Z,28.80
2023-06-19T13:24:08.208Z,29.30
2023-06-19T13:29:16.181Z,29.00
2023-06-19T13:34:24.018Z,29.40
2023-06-19T13:39:32.369Z,29.60
2023-06-19T13:44:40.111Z,29.50
2023-06-19T13:49:47.869Z,28.70
2023-06-19T13:54:55.902Z,28.50
2023-06-19T14:00:04.796Z,27.90
2023-06-19T14:05:14.850Z,27.40
2023-06-19T14:10:22.062Z,26.90
2023-06-19T14:15:29.017Z,26.80
2023-06-19T14:20:35.875Z,27.20
2023-06-19T14:25:45.179Z,27.20
2023-06-19T14:30:52.695Z,26.70
2023-06-19T14:36:00.737Z,26.40
2023-06-19T14:41:07.862Z,27.10
2023-06-19T14:46:25.911Z,27.40
2023-06-19T14:51:23.785Z,27.50
2023-06-19T14:56:30.837Z,27.70
2023-06-19T15:01:37.770Z,27.40
2023-06-19T15:06:44.898Z,27.40
2023-06-19T15:11:51.964Z,27.00
2023-06-19T15:16:58.826Z,26.80
2023-06-19T15:22:05.850Z,27.40
2023-06-19T15:27:13.063Z,27.20
2023-06-19T15:32:20.331Z,27.20
2023-06-19T15:37:27.653Z,26.80
2023-06-19T15:42:34.777Z,26.70
2023-06-19T15:47:41.660Z,26.30
2023-06-19T15:52:48.968Z,25.80
2023-06-19T15:57:56.533Z,25.20
2023-06-19T16:03:04.378Z,24.80
2023-06-19T16:08:12.246Z,24.60
2023-06-19T16:13:19.374Z,24.60
2023-06-19T16:18:26.541Z,24.50
2023-06-19T16:23:33.641Z,24.20
2023-06-19T16:28:40.653Z,23.80
2023-06-19T16:33:48.678Z,23.80
2023-06-19T16:38:55.671Z,23.60
2023-06-19T16:44:03.350Z,23.50
2023-06-19T16:49:10.994Z,23.40
2023-06-19T16:54:18.027Z,23.40
2023-06-19T16:59:25.305Z,23.60
2023-06-19T17:04:32.297Z,23.60
2023-06-19T17:09:39.668Z,23.60
2023-06-19T17:14:47.111Z,23.60
2023-06-19T17:19:55.006Z,23.50
2023-06-19T17:25:02.043Z,23.30
2023-06-19T17:30:13.414Z,23.10
2023-06-19T17:35:22.799Z,23.20
2023-06-19T17:40:29.785Z,23.30
2023-06-19T17:45:36.617Z,23.30
2023-06-19T17:50:43.538Z,23.10
2023-06-19T17:55:50.909Z,23.00
2023-06-19T18:00:58.046Z,23.00
2023-06-19T18:06:05.227Z,22.90
2023-06-19T18:11:12.194Z,22.80
2023-06-19T18:16:19.645Z,22.80
2023-06-19T18:21:26.430Z,22.60
2023-06-19T18:26:33.352Z,22.40
2023-06-19T18:31:40.348Z,22.20
2023-06-19T18:36:52.502Z,22.10
2023-06-19T18:41:56.173Z,21.90
2023-06-19T18:47:03.048Z,21.70
2023-06-19T18:52:10.203Z,21.60
2023-06-19T18:57:17.061Z,21.50
2023-06-19T19:02:29.191Z,21.30
2023-06-19T19:07:43.791Z,21.20
2023-06-19T19:12:50.461Z,21.20
2023-06-19T19:17:57.395Z,21.20
2023-06-19T19:23:04.556Z,21.20
2023-06-19T19:28:13.131Z,21.00
2023-06-19T19:33:20.569Z,20.80
2023-06-19T19:38:27.702Z,20.80
2023-06-19T19:43:35.000Z,20.70
2023-06-19T19:48:41.868Z,20.80
2023-06-19T19:53:49.156Z,20.70
2023-06-19T19:58:56.319Z,20.60
2023-06-19T20:04:03.479Z,20.50
2023-06-19T20:09:12.517Z,20.50
2023-06-19T20:14:19.532Z,20.60
2023-06-19T20:19:27.812Z,20.50
2023-06-19T20:24:35.107Z,20.30
2023-06-19T20:29:42.363Z,20.10
2023-06-19T20:34:49.941Z,20.20
2023-06-19T20:39:57.630Z,20.20
2023-06-19T20:45:05.463Z,19.90
2023-06-19T20:50:14.425Z,19.90
2023-06-19T20:55:21.445Z,19.90
2023-06-19T21:00:29.628Z,19.90
2023-06-19T21:05:36.657Z,19.90
2023-06-19T21:10:44.610Z,19.80
2023-06-19T21:15:51.819Z,19.70
2023-06-19T21:20:59.291Z,19.60
2023-06-19T21:26:06.204Z,19.60
2023-06-19T21:31:15.115Z,19.40
2023-06-19T21:36:22.606Z,19.40
2023-06-19T21:41:29.577Z,19.40
2023-06-19T21:46:38.166Z,19.40
2023-06-19T21:51:45.476Z,19.30
2023-06-19T21:56:52.750Z,19.30
2023-06-19T22:02:00.140Z,19.30
2023-06-19T22:07:07.848Z,19.30
2023-06-19T22:12:14.885Z,19.20
2023-06-19T22:17:22.703Z,19.30
2023-06-19T22:22:29.549Z,19.10
2023-06-19T22:27:36.995Z,19.10
2023-06-19T22:32:44.844Z,19.20
2023-06-19T22:37:51.750Z,19.30
2023-06-19T22:42:59.571Z,19.20
2023-06-19T22:48:06.790Z,18.90
2023-06-19T22:53:13.701Z,18.90
2023-06-19T22:58:20.848Z,18.90
2023-06-19T23:03:28.627Z,19.00
2023-06-19T23:08:40.664Z,18.90
2023-06-19T23:13:48.113Z,18.90
2023-06-19T23:18:55.556Z,18.90
2023-06-19T23:24:03.671Z,18.70
2023-06-19T23:29:11.172Z,18.70
2023-06-19T23:34:18.678Z,18.70
2023-06-19T23:39:26.193Z,18.70
2023-06-19T23:44:33.835Z,18.70
2023-06-19T23:49:42.182Z,18.70
2023-06-19T23:54:49.231Z,18.80
2023-06-19T23:59:56.434Z,18.70
